sensor_id;sensor_type;location;lat;lon;timestamp;pressure;altitude;pressure_sealevel;temperature;humidity
69171;BME280;56279;47.902;12.308;2022-07-01T00:02:22;95248.59;;;17.65;87.71
69171;BME280;56279;47.902;12.308;2022-07-01T00:04:28;95247.22;;;17.59;88.37
69171;BME280;56279;47.902;12.308;2022-07-01T00:06:49;95225.41;;;17.57;88.36
69171;BME280;56279;47.902;12.308;2022-07-01T00:12:25;95244.22;;;17.61;87.68
69171;BME280;56279;47.902;12.308;2022-07-01T00:14:31;95253.47;;;17.63;87.82
69171;BME280;56279;47.902;12.308;2022-07-01T00:16:36;95259.25;;;17.65;87.63
69171;BME280;56279;47.902;12.308;2022-07-01T00:18:43;95261.59;;;17.67;87.44
69171;BME280;56279;47.902;12.308;2022-07-01T00:20:45;95265.84;;;17.68;87.54
69171;BME280;56279;47.902;12.308;2022-07-01T00:23:05;95264.25;;;17.67;87.51
69171;BME280;56279;47.902;12.308;2022-07-01T00:25:10;95280.28;;;17.67;87.28
69171;BME280;56279;47.902;12.308;2022-07-01T00:27:20;95270.38;;;17.67;87.09
69171;BME280;56279;47.902;12.308;2022-07-01T00:29:23;95279.97;;;17.68;87.21
69171;BME280;56279;47.902;12.308;2022-07-01T00:31:53;95270.53;;;17.71;87.00
69171;BME280;56279;47.902;12.308;2022-07-01T00:34:04;95268.63;;;17.71;87.32
69171;BME280;56279;47.902;12.308;2022-07-01T00:36:09;95277.44;;;17.72;87.27
69171;BME280;56279;47.902;12.308;2022-07-01T00:38:10;95277.88;;;17.74;87.32
69171;BME280;56279;47.902;12.308;2022-07-01T00:40:12;95275.69;;;17.76;87.04
69171;BME280;56279;47.902;12.308;2022-07-01T00:42:13;95275.03;;;17.79;87.03
69171;BME280;56279;47.902;12.308;2022-07-01T00:44:28;95276.75;;;17.83;86.81
69171;BME280;56279;47.902;12.308;2022-07-01T00:47:00;95278.59;;;17.91;86.25
69171;BME280;56279;47.902;12.308;2022-07-01T00:49:02;95281.19;;;18.00;85.99
69171;BME280;56279;47.902;12.308;2022-07-01T00:51:04;95286.03;;;18.07;85.84
69171;BME280;56279;47.902;12.308;2022-07-01T00:53:08;95280.19;;;18.13;85.63
69171;BME280;56279;47.902;12.308;2022-07-01T00:55:11;95276.53;;;18.18;85.41
69171;BME280;56279;47.902;12.308;2022-07-01T00:57:13;95276.31;;;18.23;85.54
69171;BME280;56279;47.902;12.308;2022-07-01T00:59:17;95272.22;;;18.25;85.17
69171;BME280;56279;47.902;12.308;2022-07-01T01:01:18;95268.56;;;18.30;85.33
69171;BME280;56279;47.902;12.308;2022-07-01T01:03:22;95273.25;;;18.33;85.34
69171;BME280;56279;47.902;12.308;2022-07-01T01:05:27;95274.50;;;18.35;85.11
69171;BME280;56279;47.902;12.308;2022-07-01T01:07:29;95270.84;;;18.40;85.37
69171;BME280;56279;47.902;12.308;2022-07-01T01:09:30;95270.22;;;18.43;85.39
69171;BME280;56279;47.902;12.308;2022-07-01T01:11:32;95269.06;;;18.44;84.99
69171;BME280;56279;47.902;12.308;2022-07-01T01:13:33;95271.75;;;18.44;84.99
69171;BME280;56279;47.902;12.308;2022-07-01T01:15:38;95279.16;;;18.47;85.19
69171;BME280;56279;47.902;12.308;2022-07-01T01:17:39;95281.50;;;18.48;84.89
69171;BME280;56279;47.902;12.308;2022-07-01T01:19:41;95285.41;;;18.51;84.97
69171;BME280;56279;47.902;12.308;2022-07-01T01:21:43;95282.09;;;18.54;85.19
69171;BME280;56279;47.902;12.308;2022-07-01T01:23:44;95277.19;;;18.56;84.92
69171;BME280;56279;47.902;12.308;2022-07-01T01:25:47;95284.09;;;18.57;85.05
69171;BME280;56279;47.902;12.308;2022-07-01T01:27:48;95281.09;;;18.58;84.81
69171;BME280;56279;47.902;12.308;2022-07-01T01:29:54;95285.00;;;18.61;84.89
69171;BME280;56279;47.902;12.308;2022-07-01T01:31:55;95286.25;;;18.63;84.35
69171;BME280;56279;47.902;12.308;2022-07-01T01:33:57;95291.25;;;18.65;84.42
69171;BME280;56279;47.902;12.308;2022-07-01T01:35:58;95290.16;;;18.66;84.33
69171;BME280;56279;47.902;12.308;2022-07-01T01:38:02;95289.03;;;18.67;84.55
69171;BME280;56279;47.902;12.308;2022-07-01T01:40:07;95289.81;;;18.68;84.41
69171;BME280;56279;47.902;12.308;2022-07-01T01:42:11;95286.06;;;18.69;84.65
69171;BME280;56279;47.902;12.308;2022-07-01T01:44:13;95290.59;;;18.68;84.68
69171;BME280;56279;47.902;12.308;2022-07-01T01:46:14;95282.59;;;18.68;84.29
69171;BME280;56279;47.902;12.308;2022-07-01T01:48:16;95290.59;;;18.68;84.04
69171;BME280;56279;47.902;12.308;2022-07-01T01:50:25;95285.25;;;18.68;84.00
69171;BME280;56279;47.902;12.308;2022-07-01T01:52:31;95280.25;;;18.67;83.70
69171;BME280;56279;47.902;12.308;2022-07-01T01:54:33;95280.25;;;18.67;83.71
69171;BME280;56279;47.902;12.308;2022-07-01T01:56:40;95281.00;;;18.67;83.68
69171;BME280;56279;47.902;12.308;2022-07-01T01:58:41;95285.16;;;18.65;83.70
69171;BME280;56279;47.902;12.308;2022-07-01T02:00:44;95292.38;;;18.64;83.69
69171;BME280;56279;47.902;12.308;2022-07-01T02:02:45;95287.03;;;18.64;83.80
69171;BME280;56279;47.902;12.308;2022-07-01T02:04:47;95283.56;;;18.63;83.38
69171;BME280;56279;47.902;12.308;2022-07-01T02:06:48;95282.78;;;18.63;83.46
69171;BME280;56279;47.902;12.308;2022-07-01T02:08:49;95289.56;;;18.60;83.04
69171;BME280;56279;47.902;12.308;2022-07-01T02:10:51;95286.59;;;18.62;82.79
69171;BME280;56279;47.902;12.308;2022-07-01T02:12:52;95292.59;;;18.59;83.01
69171;BME280;56279;47.902;12.308;2022-07-01T02:15:01;95305.16;;;18.58;82.80
69171;BME280;56279;47.902;12.308;2022-07-01T02:17:09;95298.25;;;18.57;82.73
69171;BME280;56279;47.902;12.308;2022-07-01T02:19:17;95303.91;;;18.56;82.41
69171;BME280;56279;47.902;12.308;2022-07-01T02:21:19;95308.47;;;18.55;82.40
69171;BME280;56279;47.902;12.308;2022-07-01T02:23:29;95313.72;;;18.52;82.31
69171;BME280;56279;47.902;12.308;2022-07-01T02:25:31;95316.72;;;18.50;82.02
69171;BME280;56279;47.902;12.308;2022-07-01T02:27:38;95324.25;;;18.48;82.33
69171;BME280;56279;47.902;12.308;2022-07-01T02:29:44;95326.78;;;18.45;82.05
69171;BME280;56279;47.902;12.308;2022-07-01T02:32:07;95334.34;;;18.43;82.02
69171;BME280;56279;47.902;12.308;2022-07-01T02:34:08;95334.53;;;18.38;82.07
69171;BME280;56279;47.902;12.308;2022-07-01T02:36:10;95332.84;;;18.33;82.41
69171;BME280;56279;47.902;12.308;2022-07-01T02:38:12;95348.72;;;18.30;82.16
69171;BME280;56279;47.902;12.308;2022-07-01T02:40:16;95348.94;;;18.25;82.30
69171;BME280;56279;47.902;12.308;2022-07-01T02:42:38;95358.22;;;18.19;82.23
69171;BME280;56279;47.902;12.308;2022-07-01T02:44:43;95356.97;;;18.16;81.91
69171;BME280;56279;47.902;12.308;2022-07-01T02:46:53;95367.84;;;18.11;82.19
69171;BME280;56279;47.902;12.308;2022-07-01T02:48:55;95379.50;;;18.07;82.04
69171;BME280;56279;47.902;12.308;2022-07-01T02:51:03;95368.69;;;18.03;82.15
69171;BME280;56279;47.902;12.308;2022-07-01T02:53:06;95374.38;;;18.02;82.12
69171;BME280;56279;47.902;12.308;2022-07-01T02:55:12;95370.91;;;18.01;82.22
69171;BME280;56279;47.902;12.308;2022-07-01T02:57:17;95372.44;;;18.02;82.40
69171;BME280;56279;47.902;12.308;2022-07-01T02:59:23;95382.03;;;18.03;81.97
69171;BME280;56279;47.902;12.308;2022-07-01T03:01:25;95383.59;;;18.04;81.91
69171;BME280;56279;47.902;12.308;2022-07-01T03:03:29;95392.84;;;18.07;81.76
69171;BME280;56279;47.902;12.308;2022-07-01T03:05:37;95393.81;;;18.11;81.56
69171;BME280;56279;47.902;12.308;2022-07-01T03:07:42;95384.66;;;18.12;81.35
69171;BME280;56279;47.902;12.308;2022-07-01T03:09:46;95393.13;;;18.14;81.40
69171;BME280;56279;47.902;12.308;2022-07-01T03:11:47;95390.00;;;18.12;81.34
69171;BME280;56279;47.902;12.308;2022-07-01T03:14:00;95390.00;;;18.12;81.23
69171;BME280;56279;47.902;12.308;2022-07-01T03:16:01;95387.34;;;18.12;81.00
69171;BME280;56279;47.902;12.308;2022-07-01T03:18:07;95399.59;;;18.13;81.02
69171;BME280;56279;47.902;12.308;2022-07-01T03:20:11;95392.69;;;18.12;80.84
69171;BME280;56279;47.902;12.308;2022-07-01T03:22:21;95401.16;;;18.14;80.94
69171;BME280;56279;47.902;12.308;2022-07-01T03:24:25;95392.03;;;18.15;80.53
69171;BME280;56279;47.902;12.308;2022-07-01T03:26:27;95395.81;;;18.14;80.59
69171;BME280;56279;47.902;12.308;2022-07-01T03:28:31;95391.59;;;18.13;80.32
69171;BME280;56279;47.902;12.308;2022-07-01T03:31:03;95402.56;;;18.11;80.63
69171;BME280;56279;47.902;12.308;2022-07-01T03:33:11;95403.69;;;18.10;80.36
69171;BME280;56279;47.902;12.308;2022-07-01T03:35:37;95405.56;;;18.10;80.57
69171;BME280;56279;47.902;12.308;2022-07-01T03:37:43;95404.47;;;18.11;80.40
69171;BME280;56279;47.902;12.308;2022-07-01T03:40:06;95409.81;;;18.11;80.67
69171;BME280;56279;47.902;12.308;2022-07-01T03:42:36;95408.06;;;18.15;80.28
69171;BME280;56279;47.902;12.308;2022-07-01T03:44:42;95406.31;;;18.19;80.23
69171;BME280;56279;47.902;12.308;2022-07-01T03:46:58;95415.56;;;18.21;80.16
69171;BME280;56279;47.902;12.308;2022-07-01T03:49:13;95407.22;;;18.23;79.89
69171;BME280;56279;47.902;12.308;2022-07-01T03:51:18;95414.59;;;18.26;79.80
69171;BME280;56279;47.902;12.308;2022-07-01T03:53:28;95407.06;;;18.28;80.04
69171;BME280;56279;47.902;12.308;2022-07-01T03:55:56;95409.09;;;18.31;79.58
69171;BME280;56279;47.902;12.308;2022-07-01T03:58:06;95406.88;;;18.33;79.79
69171;BME280;56279;47.902;12.308;2022-07-01T04:00:26;95409.22;;;18.34;79.52
69171;BME280;56279;47.902;12.308;2022-07-01T04:02:37;95408.13;;;18.35;79.33
69171;BME280;56279;47.902;12.308;2022-07-01T04:05:07;95407.78;;;18.37;79.46
69171;BME280;56279;47.902;12.308;2022-07-01T04:07:38;95413.28;;;18.40;79.01
69171;BME280;56279;47.902;12.308;2022-07-01T04:10:10;95410.44;;;18.45;78.96
69171;BME280;56279;47.902;12.308;2022-07-01T04:12:35;95408.34;;;18.51;78.84
69171;BME280;56279;47.902;12.308;2022-07-01T04:14:47;95403.94;;;18.55;78.56
69171;BME280;56279;47.902;12.308;2022-07-01T04:17:09;95406.09;;;18.61;78.41
69171;BME280;56279;47.902;12.308;2022-07-01T04:19:21;95404.34;;;18.66;78.04
69171;BME280;56279;47.902;12.308;2022-07-01T04:21:39;95406.47;;;18.72;77.74
69171;BME280;56279;47.902;12.308;2022-07-01T04:27:14;95411.13;;;18.84;77.22
69171;BME280;56279;47.902;12.308;2022-07-01T04:36:14;95421.97;;;18.87;76.77
69171;BME280;56279;47.902;12.308;2022-07-01T04:38:41;95421.16;;;18.87;77.11
69171;BME280;56279;47.902;12.308;2022-07-01T04:41:13;95416.16;;;18.85;77.04
69171;BME280;56279;47.902;12.308;2022-07-01T04:43:52;95412.69;;;18.85;76.81
69171;BME280;56279;47.902;12.308;2022-07-01T04:46:35;95413.47;;;18.85;76.97
69171;BME280;56279;47.902;12.308;2022-07-01T04:49:09;95408.59;;;18.87;76.83
69171;BME280;56279;47.902;12.308;2022-07-01T04:51:31;95405.72;;;18.92;76.18
69171;BME280;56279;47.902;12.308;2022-07-01T04:54:07;95402.84;;;18.97;75.95
69171;BME280;56279;47.902;12.308;2022-07-01T04:56:09;95399.44;;;19.09;75.58
69171;BME280;56279;47.902;12.308;2022-07-01T04:58:26;95394.56;;;19.23;75.10
69171;BME280;56279;47.902;12.308;2022-07-01T05:00:41;95405.81;;;19.37;74.67
69171;BME280;56279;47.902;12.308;2022-07-01T05:02:44;95403.84;;;19.46;74.07
69171;BME280;56279;47.902;12.308;2022-07-01T05:05:03;95412.88;;;19.54;73.66
69171;BME280;56279;47.902;12.308;2022-07-01T05:07:07;95407.00;;;19.60;73.61
69171;BME280;56279;47.902;12.308;2022-07-01T05:09:28;95404.09;;;19.65;73.67
69171;BME280;56279;47.902;12.308;2022-07-01T05:11:33;95400.41;;;19.70;73.23
69171;BME280;56279;47.902;12.308;2022-07-01T05:13:44;95399.09;;;19.76;72.90
69171;BME280;56279;47.902;12.308;2022-07-01T05:16:02;95398.13;;;19.80;72.80
69171;BME280;56279;47.902;12.308;2022-07-01T05:18:11;95387.84;;;19.82;73.41
69171;BME280;56279;47.902;12.308;2022-07-01T05:23:20;95400.78;;;19.80;72.88
69171;BME280;56279;47.902;12.308;2022-07-01T05:25:24;95393.09;;;19.79;72.90
69171;BME280;56279;47.902;12.308;2022-07-01T05:27:26;95395.78;;;19.79;73.13
69171;BME280;56279;47.902;12.308;2022-07-01T05:29:51;95380.81;;;19.78;72.48
69171;BME280;56279;47.902;12.308;2022-07-01T05:31:55;95385.06;;;19.79;72.25
69171;BME280;56279;47.902;12.308;2022-07-01T05:33:57;95390.53;;;19.82;72.35
69171;BME280;56279;47.902;12.308;2022-07-01T05:35:58;95396.44;;;19.88;71.86
69171;BME280;56279;47.902;12.308;2022-07-01T05:38:00;95389.66;;;19.90;71.88
69171;BME280;56279;47.902;12.308;2022-07-01T05:40:47;95389.31;;;19.92;72.28
69171;BME280;56279;47.902;12.308;2022-07-01T05:43:53;95394.75;;;19.95;72.58
69171;BME280;56279;47.902;12.308;2022-07-01T05:46:51;95395.34;;;20.01;72.68
69171;BME280;56279;47.902;12.308;2022-07-01T08:27:07;95450.31;;;22.34;63.29
69171;BME280;56279;47.902;12.308;2022-07-01T08:37:13;95456.91;;;22.52;62.75
69171;BME280;56279;47.902;12.308;2022-07-01T08:43:34;95459.34;;;23.26;60.60
69171;BME280;56279;47.902;12.308;2022-07-01T08:52:12;95471.06;;;22.99;60.36
69171;BME280;56279;47.902;12.308;2022-07-01T09:31:59;95487.47;;;21.57;64.76
69171;BME280;56279;47.902;12.308;2022-07-01T10:14:57;95659.63;;;16.61;73.86
69171;BME280;56279;47.902;12.308;2022-07-01T10:17:43;95671.03;;;16.31;74.65
69171;BME280;56279;47.902;12.308;2022-07-01T11:08:48;95725.94;;;15.01;81.71
69171;BME280;56279;47.902;12.308;2022-07-01T11:11:09;95728.00;;;15.04;81.88
69171;BME280;56279;47.902;12.308;2022-07-01T11:13:13;95728.91;;;14.99;81.90
69171;BME280;56279;47.902;12.308;2022-07-01T11:15:18;95727.31;;;14.98;82.16
69171;BME280;56279;47.902;12.308;2022-07-01T11:17:20;95726.16;;;15.04;82.36
69171;BME280;56279;47.902;12.308;2022-07-01T11:19:22;95714.81;;;15.12;82.32
69171;BME280;56279;47.902;12.308;2022-07-01T11:21:48;95715.72;;;15.21;81.76
69171;BME280;56279;47.902;12.308;2022-07-01T11:24:27;95724.97;;;15.24;81.90
69171;BME280;56279;47.902;12.308;2022-07-01T11:26:38;95734.13;;;15.32;81.56
69171;BME280;56279;47.902;12.308;2022-07-01T11:28:49;95734.72;;;15.29;81.61
69171;BME280;56279;47.902;12.308;2022-07-01T11:32:02;95741.13;;;15.14;81.71
69171;BME280;56279;47.902;12.308;2022-07-01T11:34:09;95750.00;;;15.09;82.47
69171;BME280;56279;47.902;12.308;2022-07-01T11:36:16;95759.81;;;15.09;82.54
69171;BME280;56279;47.902;12.308;2022-07-01T11:38:39;95777.34;;;15.10;82.82
69171;BME280;56279;47.902;12.308;2022-07-01T11:41:10;95768.69;;;15.04;83.18
69171;BME280;56279;47.902;12.308;2022-07-01T11:43:23;95767.78;;;14.95;83.58
69171;BME280;56279;47.902;12.308;2022-07-01T11:45:26;95749.75;;;14.92;83.53
69171;BME280;56279;47.902;12.308;2022-07-01T11:47:31;95739.72;;;14.89;84.05
69171;BME280;56279;47.902;12.308;2022-07-01T11:49:47;95747.81;;;14.98;83.99
69171;BME280;56279;47.902;12.308;2022-07-01T11:52:04;95751.06;;;15.08;83.79
69171;BME280;56279;47.902;12.308;2022-07-01T11:54:06;95743.47;;;15.15;83.91
69171;BME280;56279;47.902;12.308;2022-07-01T11:56:08;95742.59;;;15.20;83.85
69171;BME280;56279;47.902;12.308;2022-07-01T11:58:12;95740.25;;;15.32;83.84
69171;BME280;56279;47.902;12.308;2022-07-01T12:00:17;95725.41;;;15.45;83.63
69171;BME280;56279;47.902;12.308;2022-07-01T12:02:23;95724.19;;;15.51;83.08
69171;BME280;56279;47.902;12.308;2022-07-01T12:04:25;95714.03;;;15.53;83.19
69171;BME280;56279;47.902;12.308;2022-07-01T12:06:26;95714.53;;;15.55;82.76
69171;BME280;56279;47.902;12.308;2022-07-01T12:08:31;95725.38;;;15.58;82.99
69171;BME280;56279;47.902;12.308;2022-07-01T12:10:32;95726.19;;;15.59;82.70
69171;BME280;56279;47.902;12.308;2022-07-01T12:12:37;95724.75;;;15.61;82.63
69171;BME280;56279;47.902;12.308;2022-07-01T12:14:38;95721.63;;;15.59;82.55
69171;BME280;56279;47.902;12.308;2022-07-01T12:16:43;95720.25;;;15.62;82.45
69171;BME280;56279;47.902;12.308;2022-07-01T12:19:01;95729.56;;;15.73;82.42
69171;BME280;56279;47.902;12.308;2022-07-01T12:21:04;95743.25;;;15.80;81.92
69171;BME280;56279;47.902;12.308;2022-07-01T12:23:14;95747.63;;;15.76;81.78
69171;BME280;56279;47.902;12.308;2022-07-01T12:25:18;95755.59;;;15.76;81.69
69171;BME280;56279;47.902;12.308;2022-07-01T12:27:37;95761.03;;;15.71;81.96
69171;BME280;56279;47.902;12.308;2022-07-01T12:33:59;95747.47;;;15.59;82.35
69171;BME280;56279;47.902;12.308;2022-07-01T12:36:04;95750.50;;;15.52;82.21
69171;BME280;56279;47.902;12.308;2022-07-01T12:38:06;95753.72;;;15.36;82.88
69171;BME280;56279;47.902;12.308;2022-07-01T12:40:29;95748.63;;;15.26;83.27
69171;BME280;56279;47.902;12.308;2022-07-01T12:42:37;95758.28;;;15.21;83.79
69171;BME280;56279;47.902;12.308;2022-07-01T12:44:44;95751.06;;;15.08;84.01
69171;BME280;56279;47.902;12.308;2022-07-01T12:46:46;95732.84;;;15.02;84.50
69171;BME280;56279;47.902;12.308;2022-07-01T12:48:50;95737.38;;;15.01;84.42
69171;BME280;56279;47.902;12.308;2022-07-01T12:50:56;95748.78;;;15.02;84.30
69171;BME280;56279;47.902;12.308;2022-07-01T12:55:20;95767.59;;;15.05;84.17
69171;BME280;56279;47.902;12.308;2022-07-01T12:57:32;95778.03;;;15.02;84.30
69171;BME280;56279;47.902;12.308;2022-07-01T12:59:33;95796.63;;;15.02;84.48
69171;BME280;56279;47.902;12.308;2022-07-01T13:01:35;95825.09;;;15.01;84.87
69171;BME280;56279;47.902;12.308;2022-07-01T13:03:40;95845.38;;;14.97;84.79
69171;BME280;56279;47.902;12.308;2022-07-01T13:05:41;95835.31;;;14.94;84.69
69171;BME280;56279;47.902;12.308;2022-07-01T13:07:52;95806.63;;;14.91;85.16
69171;BME280;56279;47.902;12.308;2022-07-01T13:09:55;95796.81;;;14.92;85.33
69171;BME280;56279;47.902;12.308;2022-07-01T13:11:57;95816.22;;;14.92;85.55
69171;BME280;56279;47.902;12.308;2022-07-01T13:13:58;95832.06;;;14.97;85.46
69171;BME280;56279;47.902;12.308;2022-07-01T13:16:00;95819.19;;;15.04;85.24
69171;BME280;56279;47.902;12.308;2022-07-01T13:18:03;95817.34;;;15.18;85.05
69171;BME280;56279;47.902;12.308;2022-07-01T13:22:46;95841.84;;;15.48;84.26
69171;BME280;56279;47.902;12.308;2022-07-01T13:24:50;95849.41;;;15.54;84.13
69171;BME280;56279;47.902;12.308;2022-07-01T13:27:13;95853.56;;;15.60;84.03
69171;BME280;56279;47.902;12.308;2022-07-01T13:30:05;95857.63;;;15.58;83.62
69171;BME280;56279;47.902;12.308;2022-07-01T13:32:07;95861.16;;;15.53;83.81
69171;BME280;56279;47.902;12.308;2022-07-01T13:34:17;95874.38;;;15.45;84.24
69171;BME280;56279;47.902;12.308;2022-07-01T13:36:25;95868.09;;;15.36;84.51
69171;BME280;56279;47.902;12.308;2022-07-01T13:38:30;95884.03;;;15.36;84.95
69171;BME280;56279;47.902;12.308;2022-07-01T13:40:31;95884.03;;;15.36;85.02
69171;BME280;56279;47.902;12.308;2022-07-01T13:42:33;95892.13;;;15.31;85.02
69171;BME280;56279;47.902;12.308;2022-07-01T13:44:36;95888.75;;;15.25;85.23
69171;BME280;56279;47.902;12.308;2022-07-01T13:46:44;95884.81;;;15.22;85.43
69171;BME280;56279;47.902;12.308;2022-07-01T13:48:55;95877.41;;;15.19;85.74
69171;BME280;56279;47.902;12.308;2022-07-01T13:50:57;95874.25;;;15.17;85.54
69171;BME280;56279;47.902;12.308;2022-07-01T13:53:01;95879.09;;;15.15;85.50
69171;BME280;56279;47.902;12.308;2022-07-01T13:55:06;95866.88;;;15.14;85.70
69171;BME280;56279;47.902;12.308;2022-07-01T13:57:10;95865.78;;;15.15;85.86
69171;BME280;56279;47.902;12.308;2022-07-01T13:59:14;95852.19;;;15.17;85.68
69171;BME280;56279;47.902;12.308;2022-07-01T14:01:22;95827.00;;;15.14;85.88
69171;BME280;56279;47.902;12.308;2022-07-01T14:03:26;95814.28;;;15.11;85.87
69171;BME280;56279;47.902;12.308;2022-07-01T14:05:30;95842.72;;;15.11;86.17
69171;BME280;56279;47.902;12.308;2022-07-01T14:07:32;95862.41;;;15.10;85.91
69171;BME280;56279;47.902;12.308;2022-07-01T14:09:33;95880.75;;;15.11;86.41
69171;BME280;56279;47.902;12.308;2022-07-01T14:11:35;95893.75;;;15.13;86.33
69171;BME280;56279;47.902;12.308;2022-07-01T14:13:39;95893.47;;;15.14;86.31
69171;BME280;56279;47.902;12.308;2022-07-01T14:15:47;95886.63;;;15.08;86.27
69171;BME280;56279;47.902;12.308;2022-07-01T14:18:22;95891.16;;;15.08;86.37
69171;BME280;56279;47.902;12.308;2022-07-01T14:20:57;95880.53;;;15.08;86.80
69171;BME280;56279;47.902;12.308;2022-07-01T14:23:27;95878.38;;;15.10;86.38
69171;BME280;56279;47.902;12.308;2022-07-01T14:26:18;95891.88;;;15.13;86.40
69171;BME280;56279;47.902;12.308;2022-07-01T14:32:00;95888.03;;;15.19;86.45
69171;BME280;56279;47.902;12.308;2022-07-01T14:34:07;95879.78;;;15.21;86.35
69171;BME280;56279;47.902;12.308;2022-07-01T14:36:32;95901.25;;;15.24;86.39
69171;BME280;56279;47.902;12.308;2022-07-01T14:39:06;95917.13;;;15.30;86.28
69171;BME280;56279;47.902;12.308;2022-07-01T14:41:49;95935.88;;;15.38;86.48
69171;BME280;56279;47.902;12.308;2022-07-01T14:43:57;95939.53;;;15.42;86.24
69171;BME280;56279;47.902;12.308;2022-07-01T14:46:10;95934.44;;;15.46;86.16
69171;BME280;56279;47.902;12.308;2022-07-01T14:48:20;95938.69;;;15.47;86.46
69171;BME280;56279;47.902;12.308;2022-07-01T14:50:24;95952.19;;;15.50;86.56
69171;BME280;56279;47.902;12.308;2022-07-01T14:52:51;95956.13;;;15.53;86.31
69171;BME280;56279;47.902;12.308;2022-07-01T14:55:22;95944.69;;;15.52;86.29
69171;BME280;56279;47.902;12.308;2022-07-01T14:57:47;95928.97;;;15.56;86.25
69171;BME280;56279;47.902;12.308;2022-07-01T14:59:52;95902.75;;;15.63;85.81
69171;BME280;56279;47.902;12.308;2022-07-01T15:01:57;95908.00;;;15.68;85.84
69171;BME280;56279;47.902;12.308;2022-07-01T15:04:32;95918.44;;;15.78;85.65
69171;BME280;56279;47.902;12.308;2022-07-01T15:07:12;95905.16;;;15.92;85.19
69171;BME280;56279;47.902;12.308;2022-07-01T15:09:15;95880.31;;;15.96;84.97
69171;BME280;56279;47.902;12.308;2022-07-01T15:11:19;95875.38;;;16.03;85.04
69171;BME280;56279;47.902;12.308;2022-07-01T15:13:20;95891.22;;;16.08;85.17
69171;BME280;56279;47.902;12.308;2022-07-01T15:15:22;95901.28;;;16.11;85.27
69171;BME280;56279;47.902;12.308;2022-07-01T15:17:26;95894.09;;;16.12;85.06
69171;BME280;56279;47.902;12.308;2022-07-01T15:19:31;95884.81;;;16.09;85.36
69171;BME280;56279;47.902;12.308;2022-07-01T15:21:34;95876.53;;;16.11;85.60
69171;BME280;56279;47.902;12.308;2022-07-01T15:23:42;95898.63;;;16.11;85.54
69171;BME280;56279;47.902;12.308;2022-07-01T15:25:56;95923.56;;;16.15;85.52
69171;BME280;56279;47.902;12.308;2022-07-01T15:27:58;95934.22;;;16.15;85.52
69171;BME280;56279;47.902;12.308;2022-07-01T15:30:03;95944.13;;;16.15;85.24
69171;BME280;56279;47.902;12.308;2022-07-01T15:32:06;95953.66;;;16.16;85.17
69171;BME280;56279;47.902;12.308;2022-07-01T15:34:08;95936.41;;;16.13;85.03
69171;BME280;56279;47.902;12.308;2022-07-01T15:36:09;95936.50;;;16.08;84.55
69171;BME280;56279;47.902;12.308;2022-07-01T15:38:11;95947.44;;;16.07;84.80
69171;BME280;56279;47.902;12.308;2022-07-01T15:40:13;95970.03;;;16.09;84.78
69171;BME280;56279;47.902;12.308;2022-07-01T15:42:17;95991.53;;;16.13;84.97
69171;BME280;56279;47.902;12.308;2022-07-01T15:44:18;95994.72;;;16.15;85.04
69171;BME280;56279;47.902;12.308;2022-07-01T15:46:20;96007.22;;;16.14;84.74
69171;BME280;56279;47.902;12.308;2022-07-01T15:48:29;95990.28;;;16.10;84.60
69171;BME280;56279;47.902;12.308;2022-07-01T15:53:22;95995.06;;;15.95;84.27
69171;BME280;56279;47.902;12.308;2022-07-01T15:55:24;95993.28;;;15.90;84.23
69171;BME280;56279;47.902;12.308;2022-07-01T15:58:10;95985.78;;;15.92;84.26
69171;BME280;56279;47.902;12.308;2022-07-01T16:01:38;95960.59;;;16.03;84.09
69171;BME280;56279;47.902;12.308;2022-07-01T16:16:47;95971.63;;;16.10;82.99
69171;BME280;56279;47.902;12.308;2022-07-01T16:18:58;95995.19;;;16.03;83.49
69171;BME280;56279;47.902;12.308;2022-07-01T16:21:09;96000.88;;;15.97;84.17
69171;BME280;56279;47.902;12.308;2022-07-01T16:23:13;95986.88;;;15.91;84.11
69171;BME280;56279;47.902;12.308;2022-07-01T16:25:16;95992.28;;;15.86;84.38
69171;BME280;56279;47.902;12.308;2022-07-01T16:27:21;95996.34;;;15.83;84.10
69171;BME280;56279;47.902;12.308;2022-07-01T16:29:23;95981.25;;;15.79;84.85
69171;BME280;56279;47.902;12.308;2022-07-01T16:31:28;95983.41;;;15.77;84.73
69171;BME280;56279;47.902;12.308;2022-07-01T16:33:29;95981.81;;;15.76;84.80
69171;BME280;56279;47.902;12.308;2022-07-01T16:35:53;95966.72;;;15.71;84.83
69171;BME280;56279;47.902;12.308;2022-07-01T16:37:56;95965.44;;;15.69;84.88
69171;BME280;56279;47.902;12.308;2022-07-01T16:40:15;95970.28;;;15.67;85.33
69171;BME280;56279;47.902;12.308;2022-07-01T16:42:20;95969.78;;;15.65;85.65
69171;BME280;56279;47.902;12.308;2022-07-01T16:46:45;95988.47;;;15.60;85.59
69171;BME280;56279;47.902;12.308;2022-07-01T16:48:50;95998.06;;;15.61;85.68
69171;BME280;56279;47.902;12.308;2022-07-01T16:50:53;95992.13;;;15.64;85.78
69171;BME280;56279;47.902;12.308;2022-07-01T16:52:55;96005.16;;;15.65;85.99
69171;BME280;56279;47.902;12.308;2022-07-01T16:54:58;96007.75;;;15.70;85.92
69171;BME280;56279;47.902;12.308;2022-07-01T16:57:04;96007.63;;;15.75;85.92
69171;BME280;56279;47.902;12.308;2022-07-01T16:59:07;96003.03;;;15.81;85.68
69171;BME280;56279;47.902;12.308;2022-07-01T17:01:39;96012.78;;;15.85;85.26
69171;BME280;56279;47.902;12.308;2022-07-01T17:08:16;96005.44;;;16.10;85.05
69171;BME280;56279;47.902;12.308;2022-07-01T17:11:10;96006.53;;;16.22;84.78
69171;BME280;56279;47.902;12.308;2022-07-01T17:13:49;96028.94;;;16.21;84.53
69171;BME280;56279;47.902;12.308;2022-07-01T17:33:32;96005.84;;;16.17;83.90
69171;BME280;56279;47.902;12.308;2022-07-01T17:36:18;96008.63;;;16.25;83.59
69171;BME280;56279;47.902;12.308;2022-07-01T17:38:47;96004.19;;;16.34;83.32